Terminal Aerodrome Forecast
Issued by NWS

Home | Current Version | Previous Version | Graphics & Text | Print | Product List | Glossary On
Versions: 1 2 3 4 5 6 7 8 9 10 11 12 13 14 15 16
000
FTUS43 KIWX 250500
TAFSBN
TAF
KSBN 250520Z 2506/2606 12015KT P6SM -RA BKN040 OVC070
     FM250700 13015KT 2SM RA BR OVC008 WS020/17050KT
     FM251200 21010KT 4SM -DZ BR BKN005 OVC015
     FM251400 25015G23KT P6SM OVC015
     FM251900 23014KT P6SM SCT015
     FM260000 27006KT P6SM SCT015 BKN050=

USA.gov is the U.S. government's official web portal to all federal, state and local government web resources and services.